Time;durP1;ratioP1;P1;durP2;ratioP2;P2;SDS_P1;SDS_P2;PMS_P1;PMS_P2;Temp;Humidity;BMP_temperature;BMP_pressure;BME280_temperature;BME280_humidity;BME280_pressure;Samples;Min_cycle;Max_cycle;Signal;HPM_P1;HPM_P2
2021/04/16 00:02:25;;;;;;;6.57;3.75;;;5.00;99.90;;;;;;5032766;28;20029;-73
2021/04/16 00:04:50;;;;;;;6.25;3.60;;;4.90;99.90;;;;;;5040683;28;20027;-73
2021/04/16 00:07:16;;;;;;;8.70;3.92;;;4.90;99.90;;;;;;5033717;28;20454;-73
2021/04/16 00:09:42;;;;;;;8.48;3.58;;;4.70;99.90;;;;;;5033132;28;20029;-73
2021/04/16 00:12:08;;;;;;;6.40;3.42;;;4.50;99.90;;;;;;5033504;28;20030;-73
2021/04/16 00:14:34;;;;;;;7.70;3.10;;;4.60;99.90;;;;;;5032522;28;20125;-73
2021/04/16 00:17:00;;;;;;;6.78;3.88;;;4.40;99.90;;;;;;5033287;28;20029;-73
2021/04/16 00:19:26;;;;;;;10.20;5.93;;;4.70;99.90;;;;;;5033664;28;20040;-73
2021/04/16 00:21:52;;;;;;;12.30;6.53;;;4.90;99.90;;;;;;5033027;28;20083;-73
2021/04/16 00:24:18;;;;;;;8.90;4.60;;;4.50;99.90;;;;;;5034230;28;20484;-73
2021/04/16 00:26:44;;;;;;;7.00;4.38;;;4.20;99.90;;;;;;5033235;28;20068;-73
2021/04/16 00:29:10;;;;;;;5.25;3.63;;;4.20;99.90;;;;;;5032414;28;20021;-73
2021/04/16 00:31:36;;;;;;;5.90;3.97;;;4.20;99.90;;;;;;5033678;28;20390;-73
2021/04/16 00:34:03;;;;;;;5.53;3.33;;;4.20;99.90;;;;;;5033521;28;20036;-73
2021/04/16 00:36:31;;;;;;;4.07;2.22;;;4.20;99.90;;;;;;5033145;28;20495;-73
2021/04/16 00:38:58;;;;;;;4.95;2.85;;;4.20;99.90;;;;;;5033278;28;20029;-73
2021/04/16 00:41:27;;;;;;;4.00;2.25;;;4.30;99.90;;;;;;5048443;28;20494;-73
2021/04/16 00:43:54;;;;;;;4.43;2.90;;;4.10;99.90;;;;;;5030459;28;20031;-73
2021/04/16 00:46:31;;;;;;;11.52;4.82;;;4.00;99.90;;;;;;5033059;28;20034;-73
2021/04/16 00:49:03;;;;;;;7.55;4.22;;;3.90;99.90;;;;;;5033009;28;20024;-73
2021/04/16 00:51:45;;;;;;;3.70;2.33;;;3.80;99.90;;;;;;5033053;28;20034;-73
2021/04/16 00:54:21;;;;;;;9.90;4.18;;;3.70;99.90;;;;;;5033004;28;20068;-73
2021/04/16 00:56:49;;;;;;;3.72;1.73;;;3.90;99.90;;;;;;5032836;28;20021;-73
2021/04/16 00:59:16;;;;;;;3.97;2.40;;;4.20;99.90;;;;;;5031377;28;20049;-73
2021/04/16 01:01:42;;;;;;;5.53;2.25;;;4.10;99.90;;;;;;5032972;28;20033;-73
2021/04/16 01:04:09;;;;;;;6.15;3.28;;;4.20;99.90;;;;;;5031650;28;20104;-73
2021/04/16 01:06:35;;;;;;;7.13;3.47;;;4.10;99.90;;;;;;5049787;28;20024;-73
2021/04/16 01:09:01;;;;;;;5.32;2.95;;;4.00;99.90;;;;;;5052759;28;20402;-73
2021/04/16 01:11:27;;;;;;;3.95;2.22;;;3.70;99.90;;;;;;5049689;28;20041;-73
2021/04/16 01:13:54;;;;;;;5.47;2.67;;;3.60;99.90;;;;;;5046853;28;20037;-73
2021/04/16 01:16:22;;;;;;;2.70;1.85;;;3.20;99.90;;;;;;5045116;28;20038;-73
2021/04/16 01:18:51;;;;;;;5.40;2.53;;;3.20;99.90;;;;;;5035338;28;20033;-73
2021/04/16 01:21:22;;;;;;;3.80;2.03;;;3.40;99.90;;;;;;5035387;28;20033;-73
2021/04/16 01:24:05;;;;;;;2.40;1.60;;;3.40;99.90;;;;;;5045969;28;20032;-73
2021/04/16 01:26:36;;;;;;;2.67;2.28;;;3.50;99.90;;;;;;5029364;28;20100;-73
2021/04/16 01:29:02;;;;;;;3.60;2.22;;;3.70;99.90;;;;;;5034522;28;20498;-73
2021/04/16 01:31:28;;;;;;;3.88;2.38;;;3.60;99.90;;;;;;5031881;28;20065;-73
2021/04/16 01:33:55;;;;;;;4.03;2.03;;;3.20;99.90;;;;;;5032097;28;20083;-73
2021/04/16 01:36:27;;;;;;;3.78;2.45;;;3.00;99.90;;;;;;5031047;28;20449;-73
2021/04/16 01:38:55;;;;;;;4.90;2.60;;;2.90;99.90;;;;;;5032007;28;20534;-73
2021/04/16 01:41:21;;;;;;;4.47;2.55;;;3.00;99.90;;;;;;5032081;28;20057;-73
2021/04/16 01:43:55;;;;;;;3.53;2.13;;;3.10;99.90;;;;;;5032090;28;20491;-73
2021/04/16 01:46:22;;;;;;;2.97;2.08;;;3.20;99.90;;;;;;5031970;28;20387;-73
2021/04/16 01:48:50;;;;;;;6.50;1.92;;;3.50;99.90;;;;;;5031707;28;20037;-73
2021/04/16 01:51:29;;;;;;;5.07;2.28;;;3.40;99.90;;;;;;5031595;28;20033;-73
2021/04/16 01:54:10;;;;;;;4.10;2.58;;;3.40;99.90;;;;;;5030933;28;20025;-73
2021/04/16 01:56:36;;;;;;;4.43;2.20;;;3.20;99.90;;;;;;5043616;28;20036;-73
2021/04/16 01:59:06;;;;;;;5.63;2.50;;;3.20;99.90;;;;;;5031951;28;20100;-73
2021/04/16 02:01:32;;;;;;;6.55;2.83;;;2.70;99.90;;;;;;5031773;28;20029;-73
2021/04/16 02:03:57;;;;;;;4.78;3.15;;;2.60;99.90;;;;;;5030898;28;20037;-73
2021/04/16 02:06:23;;;;;;;5.53;2.38;;;2.70;99.90;;;;;;5031579;28;20029;-73
2021/04/16 02:08:49;;;;;;;5.28;1.98;;;2.80;99.90;;;;;;5031152;28;20045;-73
2021/04/16 02:11:15;;;;;;;2.22;1.63;;;2.80;99.90;;;;;;5030061;28;20450;-73
2021/04/16 02:13:41;;;;;;;3.15;2.22;;;2.90;99.90;;;;;;5031467;28;20025;-73
2021/04/16 02:16:07;;;;;;;5.75;2.63;;;2.90;99.90;;;;;;5030162;28;20033;-73
2021/04/16 02:18:32;;;;;;;2.90;2.00;;;2.80;99.90;;;;;;5031531;28;20037;-74
2021/04/16 02:20:58;;;;;;;3.33;2.03;;;2.70;99.90;;;;;;5031808;28;20557;-73
2021/04/16 02:23:24;;;;;;;3.97;2.10;;;2.70;99.90;;;;;;5030598;28;20398;-73
2021/04/16 02:25:50;;;;;;;3.47;2.00;;;2.70;99.90;;;;;;5031239;28;20049;-73
2021/04/16 02:28:15;;;;;;;3.30;2.28;;;2.80;99.90;;;;;;5031503;28;20108;-73
2021/04/16 02:30:41;;;;;;;4.75;2.20;;;2.90;99.90;;;;;;5031428;28;20042;-73
2021/04/16 02:33:07;;;;;;;2.97;2.20;;;3.10;99.90;;;;;;5031525;28;20092;-73
2021/04/16 02:35:33;;;;;;;5.13;2.08;;;3.10;99.90;;;;;;5029307;28;20029;-73
2021/04/16 02:37:59;;;;;;;4.82;2.63;;;2.60;99.90;;;;;;5031149;28;20044;-73
2021/04/16 02:40:26;;;;;;;4.55;2.60;;;2.30;99.90;;;;;;5031461;28;20105;-73
2021/04/16 02:42:53;;;;;;;2.40;1.95;;;2.10;99.90;;;;;;5031220;28;20037;-73
2021/04/16 02:45:22;;;;;;;2.83;2.17;;;2.20;99.90;;;;;;5031423;28;20021;-73
2021/04/16 02:47:47;;;;;;;2.90;2.03;;;2.30;99.90;;;;;;5031487;28;20057;-73
2021/04/16 02:50:17;;;;;;;2.90;1.95;;;2.20;99.90;;;;;;5045982;28;20123;-73
2021/04/16 02:52:43;;;;;;;3.85;2.83;;;2.40;99.90;;;;;;5031360;28;20029;-73
2021/04/16 02:55:10;;;;;;;2.53;1.65;;;2.60;99.90;;;;;;5031361;28;20040;-73
2021/04/16 02:57:36;;;;;;;3.83;2.30;;;2.60;99.90;;;;;;5042649;28;20395;-73
2021/04/16 03:00:05;;;;;;;4.00;2.55;;;2.50;99.90;;;;;;5030924;28;20050;-73
2021/04/16 03:02:31;;;;;;;3.58;2.90;;;2.40;99.90;;;;;;5030874;28;20040;-73
2021/04/16 03:04:57;;;;;;;3.58;2.33;;;2.30;99.90;;;;;;5030052;28;20034;-73
2021/04/16 03:07:22;;;;;;;3.10;2.03;;;2.10;99.90;;;;;;5031081;28;20026;-73
2021/04/16 03:09:48;;;;;;;3.22;1.88;;;2.10;99.90;;;;;;5030988;28;20037;-73
2021/04/16 03:12:14;;;;;;;3.17;2.15;;;2.10;99.90;;;;;;5030830;28;20099;-73
2021/04/16 03:14:40;;;;;;;3.78;2.60;;;1.90;99.90;;;;;;5029422;28;20513;-73
2021/04/16 03:17:05;;;;;;;4.53;2.33;;;1.90;99.90;;;;;;5030722;28;20084;-73
2021/04/16 03:19:31;;;;;;;4.80;3.03;;;1.90;99.90;;;;;;5031053;28;20445;-73
2021/04/16 03:21:57;;;;;;;4.97;2.95;;;1.90;99.90;;;;;;5029626;28;20490;-73
2021/04/16 03:24:22;;;;;;;4.05;2.47;;;1.90;99.90;;;;;;5031879;28;20503;-73
2021/04/16 03:26:48;;;;;;;5.68;2.38;;;1.90;99.90;;;;;;5042112;28;20037;-73
2021/04/16 03:29:14;;;;;;;3.45;2.88;;;2.00;99.90;;;;;;5042549;28;20065;-73
2021/04/16 03:31:39;;;;;;;5.13;3.10;;;2.00;99.90;;;;;;5032965;28;20040;-73
2021/04/16 03:34:05;;;;;;;6.13;2.50;;;2.00;99.90;;;;;;5034466;28;20104;-73
2021/04/16 03:36:31;;;;;;;6.15;3.08;;;1.90;99.90;;;;;;5034152;28;20026;-73
2021/04/16 03:38:58;;;;;;;11.68;3.53;;;1.70;99.90;;;;;;5034112;28;20506;-73
2021/04/16 03:41:23;;;;;;;5.88;3.33;;;1.90;99.90;;;;;;5036411;28;20029;-73
2021/04/16 03:43:49;;;;;;;5.45;3.20;;;2.00;99.90;;;;;;5034340;28;20099;-73
2021/04/16 03:46:16;;;;;;;5.05;2.42;;;1.90;99.90;;;;;;5034269;28;20053;-73
2021/04/16 03:48:41;;;;;;;10.20;3.05;;;1.90;99.90;;;;;;5034076;28;20104;-73
2021/04/16 03:51:08;;;;;;;3.97;2.70;;;1.90;99.90;;;;;;5033296;28;20159;-73
2021/04/16 03:53:36;;;;;;;5.55;2.80;;;1.80;99.90;;;;;;5033001;28;20038;-73
2021/04/16 03:56:03;;;;;;;3.92;2.72;;;1.60;99.90;;;;;;5041863;28;20041;-73
2021/04/16 03:58:29;;;;;;;3.35;2.35;;;1.70;99.90;;;;;;5042522;28;20041;-73
2021/04/16 04:00:55;;;;;;;6.55;3.13;;;1.60;99.90;;;;;;5037278;28;20431;-73
2021/04/16 04:03:21;;;;;;;3.97;2.33;;;1.60;99.90;;;;;;5037336;28;20039;-73
2021/04/16 04:05:46;;;;;;;4.90;3.70;;;1.20;99.90;;;;;;5049426;28;20025;-73
2021/04/16 04:08:12;;;;;;;8.82;4.53;;;1.00;99.90;;;;;;5033849;28;20483;-73
2021/04/16 04:10:38;;;;;;;18.70;11.38;;;1.10;99.90;;;;;;5033827;28;20036;-73
2021/04/16 04:13:10;;;;;;;15.05;9.57;;;0.90;99.90;;;;;;5033794;28;20038;-73
2021/04/16 04:15:36;;;;;;;9.15;5.78;;;1.20;99.90;;;;;;5033414;28;20073;-73
2021/04/16 04:18:05;;;;;;;7.13;5.15;;;1.30;99.90;;;;;;5032320;28;20418;-73
2021/04/16 04:20:32;;;;;;;7.13;3.85;;;1.20;99.90;;;;;;5033567;28;20029;-73
2021/04/16 04:22:59;;;;;;;6.97;4.20;;;1.30;99.90;;;;;;5034093;28;20025;-73
2021/04/16 04:25:28;;;;;;;12.40;4.05;;;1.60;99.90;;;;;;5032959;28;20767;-73
2021/04/16 04:27:54;;;;;;;7.57;3.55;;;1.70;99.90;;;;;;5033582;28;20064;-73
2021/04/16 04:30:26;;;;;;;7.35;4.05;;;1.70;99.90;;;;;;5033708;28;20022;-73
2021/04/16 04:32:53;;;;;;;13.90;5.18;;;1.70;99.90;;;;;;5033245;28;20021;-73
2021/04/16 04:35:19;;;;;;;6.18;3.85;;;1.60;99.90;;;;;;5033407;28;20045;-73
2021/04/16 04:37:45;;;;;;;9.65;4.63;;;1.20;99.90;;;;;;5033046;28;20041;-73
2021/04/16 04:40:12;;;;;;;11.23;4.82;;;1.20;99.90;;;;;;5036066;28;20033;-73
2021/04/16 04:42:38;;;;;;;10.20;4.13;;;1.40;99.90;;;;;;5044508;28;20037;-73
2021/04/16 04:45:05;;;;;;;7.65;4.25;;;1.30;99.90;;;;;;5032959;28;20036;-73
2021/04/16 04:47:31;;;;;;;9.30;5.20;;;1.30;99.90;;;;;;5032879;28;20030;-73
2021/04/16 04:49:57;;;;;;;11.25;6.38;;;1.40;99.90;;;;;;5033636;28;20483;-73
2021/04/16 04:52:32;;;;;;;15.13;7.00;;;1.30;99.90;;;;;;5035923;28;20040;-73
2021/04/16 04:55:01;;;;;;;13.35;6.35;;;1.40;99.90;;;;;;5033004;28;20025;-73
2021/04/16 04:57:28;;;;;;;7.75;3.80;;;1.10;99.90;;;;;;5032988;28;20037;-73
2021/04/16 04:59:54;;;;;;;7.40;4.75;;;1.20;99.90;;;;;;5031972;28;20140;-73
2021/04/16 05:02:22;;;;;;;6.10;3.42;;;1.50;99.90;;;;;;5032398;28;20562;-73
2021/04/16 05:04:48;;;;;;;6.28;3.45;;;1.60;99.90;;;;;;5033524;28;20036;-73
2021/04/16 05:07:14;;;;;;;11.45;5.43;;;1.40;99.90;;;;;;5038061;28;20037;-73
2021/04/16 05:09:39;;;;;;;8.18;4.15;;;1.30;99.90;;;;;;5043903;28;20498;-73
2021/04/16 05:12:06;;;;;;;9.48;3.78;;;1.20;99.90;;;;;;5040318;28;20065;-73
2021/04/16 05:14:32;;;;;;;6.10;3.67;;;1.10;99.90;;;;;;5032832;28;20079;-73
2021/04/16 05:16:57;;;;;;;10.27;3.17;;;1.00;99.90;;;;;;5034104;28;20033;-73
2021/04/16 05:19:23;;;;;;;13.90;5.22;;;0.80;99.90;;;;;;5039498;28;20441;-73
2021/04/16 05:21:55;;;;;;;10.57;4.65;;;0.80;99.90;;;;;;5045189;28;20064;-73
2021/04/16 05:24:21;;;;;;;4.68;3.38;;;1.10;99.90;;;;;;5032312;28;20117;-73
2021/04/16 05:26:47;;;;;;;5.50;3.10;;;1.30;99.90;;;;;;5032494;28;20061;-73
2021/04/16 05:29:12;;;;;;;5.15;3.13;;;1.30;99.90;;;;;;5031124;28;20029;-73
2021/04/16 05:31:38;;;;;;;3.38;2.15;;;1.40;99.90;;;;;;5030974;28;20037;-73
2021/04/16 05:34:04;;;;;;;4.75;2.63;;;1.40;99.90;;;;;;5046547;28;20494;-73
2021/04/16 05:36:31;;;;;;;3.55;2.53;;;1.40;99.90;;;;;;5044586;28;20095;-73
2021/04/16 05:38:57;;;;;;;3.67;2.35;;;1.30;99.90;;;;;;5032678;28;20398;-73
2021/04/16 05:41:23;;;;;;;2.80;2.13;;;1.30;99.90;;;;;;5041927;28;20029;-73
2021/04/16 05:43:49;;;;;;;13.35;5.85;;;1.50;99.90;;;;;;5031999;28;20372;-73
2021/04/16 05:46:15;;;;;;;6.13;2.80;;;1.60;99.90;;;;;;5031253;28;20033;-74
2021/04/16 05:48:40;;;;;;;6.25;2.92;;;1.80;99.90;;;;;;5030688;28;20041;-74
2021/04/16 05:51:07;;;;;;;9.75;3.67;;;1.80;99.90;;;;;;5030754;28;20025;-74
2021/04/16 05:53:33;;;;;;;7.07;3.92;;;1.80;99.90;;;;;;5039285;28;20470;-74
2021/04/16 05:55:59;;;;;;;7.22;4.03;;;1.90;99.90;;;;;;5032404;28;20089;-74
2021/04/16 05:58:24;;;;;;;6.15;3.78;;;1.80;99.90;;;;;;5041067;28;20115;-73
2021/04/16 06:00:50;;;;;;;6.78;3.15;;;1.70;99.90;;;;;;5032392;28;20130;-73
2021/04/16 06:03:19;;;;;;;8.93;4.35;;;1.30;99.90;;;;;;5038441;28;20158;-73
2021/04/16 06:05:46;;;;;;;8.27;4.60;;;1.40;99.90;;;;;;5050569;28;20426;-73
2021/04/16 06:08:13;;;;;;;18.10;4.60;;;1.50;99.90;;;;;;5036936;28;20026;-73
2021/04/16 06:10:39;;;;;;;6.38;4.40;;;1.50;99.90;;;;;;5040896;28;20436;-73
2021/04/16 06:13:05;;;;;;;9.40;3.10;;;1.60;99.90;;;;;;5037716;28;20048;-73
2021/04/16 06:15:30;;;;;;;5.28;2.58;;;1.90;99.90;;;;;;5030156;28;20037;-74
2021/04/16 06:17:57;;;;;;;5.72;2.85;;;1.60;99.90;;;;;;5043369;28;20571;-74
2021/04/16 06:20:26;;;;;;;4.80;2.92;;;1.80;99.90;;;;;;5035145;28;20105;-74
2021/04/16 06:22:54;;;;;;;5.20;3.35;;;2.20;99.90;;;;;;5042900;28;20033;-74
2021/04/16 06:25:23;;;;;;;3.55;3.03;;;2.40;99.90;;;;;;5036772;28;20022;-74
2021/04/16 06:27:49;;;;;;;3.80;2.67;;;2.40;99.90;;;;;;5037235;28;20025;-73
2021/04/16 06:30:17;;;;;;;6.65;3.13;;;2.40;99.90;;;;;;5031946;28;20021;-73
2021/04/16 06:32:43;;;;;;;4.95;3.67;;;2.40;99.90;;;;;;5062651;28;20029;-73
2021/04/16 06:35:14;;;;;;;6.35;2.60;;;2.40;99.90;;;;;;5030396;28;20376;-73
2021/04/16 06:37:40;;;;;;;4.18;2.92;;;2.60;99.90;;;;;;5030161;28;20045;-73
2021/04/16 06:40:06;;;;;;;3.63;2.70;;;2.60;99.90;;;;;;5029174;28;20517;-74
2021/04/16 06:42:33;;;;;;;5.20;2.88;;;2.70;99.90;;;;;;5030025;28;20040;-74
2021/04/16 06:45:06;;;;;;;3.22;2.78;;;3.00;99.90;;;;;;5028511;28;20022;-74
2021/04/16 06:47:50;;;;;;;4.93;2.80;;;3.10;99.90;;;;;;5031824;28;20028;-75
2021/04/16 06:50:17;;;;;;;3.45;2.67;;;3.10;99.90;;;;;;5030000;28;20036;-74
2021/04/16 06:52:53;;;;;;;4.13;3.45;;;3.20;99.90;;;;;;5031419;28;20076;-74
2021/04/16 06:55:28;;;;;;;3.05;2.53;;;3.60;99.90;;;;;;5031482;28;20112;-74
2021/04/16 06:58:00;;;;;;;5.20;3.13;;;3.80;99.90;;;;;;5031116;28;20057;-74
2021/04/16 07:00:49;;;;;;;4.60;2.67;;;4.10;99.90;;;;;;5031936;28;20057;-74
2021/04/16 07:03:27;;;;;;;5.53;2.87;;;4.30;99.90;;;;;;5035333;28;20029;-74
2021/04/16 07:06:30;;;;;;;5.07;3.28;;;4.50;99.90;;;;;;5035196;28;20022;-74
2021/04/16 07:09:01;;;;;;;3.40;2.97;;;4.70;99.90;;;;;;5013109;28;20026;-74
2021/04/16 07:11:32;;;;;;;6.10;3.33;;;4.80;99.90;;;;;;5013206;28;20037;-74
2021/04/16 07:14:00;;;;;;;5.22;2.88;;;5.00;99.90;;;;;;5012898;28;20757;-74
2021/04/16 07:16:26;;;;;;;4.63;3.20;;;5.00;99.90;;;;;;5012791;28;20121;-74
2021/04/16 07:18:57;;;;;;;5.20;2.88;;;5.10;98.10;;;;;;5013026;28;20112;-74
2021/04/16 07:21:23;;;;;;;3.10;2.65;;;5.20;97.80;;;;;;5013090;28;20436;-74
2021/04/16 07:24:00;;;;;;;5.15;2.80;;;5.30;99.60;;;;;;5012867;28;20149;-75
2021/04/16 07:26:43;;;;;;;4.75;3.20;;;5.50;98.10;;;;;;5012932;28;20052;-74
2021/04/16 07:29:17;;;;;;;4.35;3.20;;;5.60;95.70;;;;;;5012739;28;20030;-74
2021/04/16 07:31:49;;;;;;;4.20;2.85;;;5.80;93.70;;;;;;5012725;28;20026;-74
2021/04/16 07:34:17;;;;;;;5.22;2.60;;;5.90;92.00;;;;;;5012766;28;20728;-74
2021/04/16 07:36:44;;;;;;;10.35;2.53;;;6.00;91.50;;;;;;5012729;28;20121;-74
2021/04/16 07:39:12;;;;;;;7.90;2.67;;;6.10;83.80;;;;;;5012711;28;20026;-74
2021/04/16 07:42:12;;;;;;;5.07;2.95;;;6.10;88.40;;;;;;5012145;28;20026;-74
2021/04/16 07:44:55;;;;;;;6.75;2.95;;;6.20;83.70;;;;;;5034490;28;20022;-74
2021/04/16 07:47:25;;;;;;;4.15;2.50;;;6.40;86.20;;;;;;5034601;28;20391;-74
2021/04/16 07:50:27;;;;;;;3.58;2.90;;;6.60;86.00;;;;;;5034363;28;20029;-74
2021/04/16 07:52:53;;;;;;;6.32;3.17;;;6.80;87.10;;;;;;5034272;28;20025;-74
2021/04/16 07:55:25;;;;;;;12.10;3.15;;;6.90;82.80;;;;;;5034385;28;20368;-74
2021/04/16 07:57:51;;;;;;;4.15;3.08;;;7.00;79.10;;;;;;5032617;28;20029;-74
2021/04/16 08:00:38;;;;;;;5.95;3.10;;;7.10;85.20;;;;;;5034055;28;20069;-74
2021/04/16 08:03:20;;;;;;;9.60;3.42;;;7.30;85.60;;;;;;5034105;28;20057;-74
2021/04/16 08:05:55;;;;;;;4.07;2.83;;;7.50;80.90;;;;;;5032815;28;20403;-74
2021/04/16 08:08:26;;;;;;;4.32;2.75;;;7.70;83.10;;;;;;5034138;28;20030;-74
2021/04/16 08:10:54;;;;;;;3.58;2.35;;;7.80;78.70;;;;;;5033759;28;20024;-74
2021/04/16 08:13:24;;;;;;;7.80;2.85;;;8.00;78.50;;;;;;5033451;28;20014;-74
2021/04/16 08:15:51;;;;;;;4.35;2.35;;;8.30;73.30;;;;;;5033816;28;20032;-74
2021/04/16 08:18:30;;;;;;;5.97;3.67;;;8.40;71.40;;;;;;5033923;28;20024;-74
2021/04/16 08:21:10;;;;;;;4.97;2.95;;;8.60;72.70;;;;;;5033813;28;20108;-74
2021/04/16 08:23:59;;;;;;;3.90;2.30;;;8.90;71.10;;;;;;5033877;28;20042;-74
2021/04/16 08:26:32;;;;;;;61.13;9.15;;;9.00;74.40;;;;;;5033373;28;20181;-74
2021/04/16 08:29:23;;;;;;;3.15;2.80;;;9.10;71.60;;;;;;5032357;28;20084;-74
2021/04/16 08:32:05;;;;;;;4.80;3.35;;;8.60;67.60;;;;;;5032328;28;20033;-74
2021/04/16 08:34:42;;;;;;;7.38;2.65;;;8.60;69.20;;;;;;5033615;28;20021;-74
2021/04/16 08:37:21;;;;;;;5.65;3.88;;;8.90;66.90;;;;;;5033368;28;20525;-74
2021/04/16 08:39:48;;;;;;;6.03;3.53;;;8.60;66.00;;;;;;5033184;28;20132;-74
2021/04/16 08:42:19;;;;;;;5.68;3.13;;;9.10;67.80;;;;;;5033299;28;20042;-74
2021/04/16 08:45:09;;;;;;;8.43;2.78;;;8.90;64.80;;;;;;5033512;28;20056;-74
2021/04/16 08:47:53;;;;;;;;;;;8.90;65.40;;;;;;5032479;28;20116;-74
2021/04/16 08:50:24;;;;;;;7.47;3.47;;;9.20;65.30;;;;;;5033242;28;20337;-74
2021/04/16 08:52:53;;;;;;;4.68;2.67;;;9.00;63.70;;;;;;5033177;28;20024;-74
2021/04/16 08:55:25;;;;;;;8.65;3.17;;;9.20;62.40;;;;;;5032722;28;20482;-74
2021/04/16 08:57:58;;;;;;;4.93;3.00;;;9.40;64.80;;;;;;5033172;28;20089;-74
2021/04/16 09:00:35;;;;;;;3.63;2.83;;;10.20;65.70;;;;;;5032959;28;20049;-74
2021/04/16 09:03:04;;;;;;;4.53;2.85;;;10.10;61.30;;;;;;5032857;28;20021;-74
2021/04/16 09:05:50;;;;;;;15.95;3.70;;;10.80;62.10;;;;;;5031750;28;20441;-74
2021/04/16 09:08:25;;;;;;;4.85;4.15;;;11.00;62.70;;;;;;5032325;28;20108;-74
2021/04/16 09:10:53;;;;;;;6.95;3.53;;;11.30;56.70;;;;;;5032974;28;20026;-74
2021/04/16 09:13:34;;;;;;;5.05;3.50;;;12.10;61.10;;;;;;5032689;28;20017;-74
2021/04/16 09:16:14;;;;;;;7.60;3.83;;;10.80;54.80;;;;;;5032718;28;20033;-74
2021/04/16 09:18:42;;;;;;;6.72;4.85;;;12.50;55.00;;;;;;5031643;28;20439;-74
2021/04/16 09:21:23;;;;;;;6.30;3.97;;;16.30;51.90;;;;;;5032491;28;20068;-74
2021/04/16 09:24:12;;;;;;;8.68;3.95;;;15.90;42.90;;;;;;5032400;28;20030;-74
2021/04/16 09:26:44;;;;;;;7.05;4.25;;;16.40;44.90;;;;;;5032124;28;20040;-74
2021/04/16 09:29:28;;;;;;;8.07;4.65;;;14.40;48.50;;;;;;5032578;28;20030;-74
2021/04/16 09:31:57;;;;;;;8.15;4.35;;;16.00;45.50;;;;;;5032529;28;20040;-75
2021/04/16 09:34:27;;;;;;;5.25;4.00;;;16.60;41.70;;;;;;5032267;28;20453;-74
2021/04/16 09:37:14;;;;;;;7.03;4.43;;;17.70;42.40;;;;;;5031202;28;20529;-75
2021/04/16 09:39:42;;;;;;;6.20;4.32;;;17.60;42.10;;;;;;5032384;28;20044;-75
2021/04/16 09:42:33;;;;;;;18.63;5.00;;;17.10;41.30;;;;;;5030954;28;20465;-75
2021/04/16 09:45:00;;;;;;;6.63;5.15;;;16.70;40.40;;;;;;5032319;28;20037;-75
2021/04/16 09:47:44;;;;;;;6.82;4.88;;;18.40;39.50;;;;;;5032208;28;20104;-75
2021/04/16 09:50:34;;;;;;;6.18;4.57;;;19.00;40.70;;;;;;5032106;28;20061;-74
2021/04/16 09:53:11;;;;;;;6.30;4.25;;;21.10;42.60;;;;;;5031832;28;20036;-75
2021/04/16 09:55:59;;;;;;;6.88;4.65;;;21.70;36.60;;;;;;5032125;28;20372;-75
2021/04/16 09:58:34;;;;;;;6.07;5.00;;;19.20;39.80;;;;;;5031907;28;20100;-75
2021/04/16 10:01:15;;;;;;;5.78;4.82;;;21.30;40.10;;;;;;5030520;28;20054;-75
2021/04/16 10:03:58;;;;;;;5.50;5.00;;;23.30;35.30;;;;;;5032043;28;20021;-75
2021/04/16 10:06:34;;;;;;;5.28;4.35;;;22.50;34.80;;;;;;5031402;28;20499;-75
2021/04/16 10:09:06;;;;;;;4.70;4.10;;;20.80;33.90;;;;;;5032009;28;20068;-75
2021/04/16 10:11:32;;;;;;;8.48;4.82;;;21.00;37.10;;;;;;5031916;28;20064;-75
2021/04/16 10:14:25;;;;;;;14.05;5.47;;;18.90;41.00;;;;;;5032048;28;20026;-75
2021/04/16 10:17:12;;;;;;;6.88;4.03;;;18.30;39.90;;;;;;5031843;28;20120;-75
2021/04/16 10:19:41;;;;;;;30.25;6.20;;;17.30;44.70;;;;;;5030972;28;20072;-75
2021/04/16 10:22:17;;;;;;;5.13;4.70;;;17.40;41.60;;;;;;5031560;28;20053;-75
2021/04/16 12:40:14;;;;;;;5.30;3.80;;;29.30;31.40;;;;;;5033542;28;20071;-75
2021/04/16 12:42:39;;;;;;;4.78;3.28;;;26.00;29.80;;;;;;5033686;28;20033;-75
2021/04/16 12:45:06;;;;;;;4.28;3.30;;;28.20;30.30;;;;;;5033215;28;20044;-75
2021/04/16 12:47:32;;;;;;;3.55;3.25;;;28.50;29.80;;;;;;5033098;28;20096;-75
2021/04/16 12:49:59;;;;;;;3.90;3.50;;;28.60;30.20;;;;;;5033342;28;20029;-75
2021/04/16 12:52:25;;;;;;;3.22;3.03;;;29.20;29.90;;;;;;5033274;28;20037;-75
2021/04/16 12:54:52;;;;;;;6.22;3.40;;;27.90;29.50;;;;;;5031917;28;20026;-75
2021/04/16 12:57:38;;;;;;;9.82;4.00;;;26.40;29.60;;;;;;5033084;28;20029;-75
2021/04/16 13:00:14;;;;;;;4.68;2.90;;;23.40;29.70;;;;;;5032274;28;20045;-75
2021/04/16 13:02:40;;;;;;;7.82;3.45;;;24.60;31.00;;;;;;5033114;28;20029;-75
2021/04/16 13:05:14;;;;;;;4.72;3.13;;;24.30;33.50;;;;;;5032956;28;20026;-77
2021/04/16 13:07:40;;;;;;;3.33;3.05;;;27.70;31.20;;;;;;5033072;28;20036;-75
2021/04/16 13:10:12;;;;;;;4.55;3.17;;;28.30;29.10;;;;;;5032722;28;20044;-75
2021/04/16 13:12:39;;;;;;;4.78;3.10;;;29.30;30.40;;;;;;5032004;28;20033;-75
2021/04/16 13:15:05;;;;;;;3.42;3.17;;;21.80;31.40;;;;;;5033068;28;20391;-75
2021/04/16 13:17:34;;;;;;;3.20;2.90;;;23.60;35.40;;;;;;5031609;28;20517;-75
2021/04/16 13:20:01;;;;;;;5.60;3.08;;;28.60;32.70;;;;;;5047334;28;20033;-79
2021/04/16 13:22:28;;;;;;;3.70;3.38;;;29.10;32.40;;;;;;5028940;28;20041;-76
2021/04/16 13:24:55;;;;;;;3.20;2.90;;;27.30;33.30;;;;;;5037804;28;20017;-75
2021/04/16 13:27:28;;;;;;;4.65;3.63;;;25.00;31.40;;;;;;5038511;28;20052;-74
2021/04/16 13:29:54;;;;;;;5.97;3.97;;;21.60;34.40;;;;;;5046873;28;20033;-75
2021/04/16 13:32:24;;;;;;;3.42;3.13;;;19.90;37.40;;;;;;5031838;28;20032;-75
2021/04/16 13:34:53;;;;;;;4.57;3.20;;;17.90;37.60;;;;;;5026067;28;20028;-75
2021/04/16 13:37:21;;;;;;;4.70;3.10;;;16.30;38.10;;;;;;5040669;28;20021;-75
2021/04/16 13:39:49;;;;;;;3.70;2.92;;;20.30;41.10;;;;;;5041865;28;20068;-74
2021/04/16 13:42:15;;;;;;;3.45;3.08;;;24.40;34.00;;;;;;5035762;28;20041;-75
2021/04/16 13:44:42;;;;;;;3.20;2.90;;;25.90;30.50;;;;;;5043490;28;20100;-75
2021/04/16 13:47:14;;;;;;;7.18;2.70;;;25.50;31.80;;;;;;5045177;28;20509;-75
2021/04/16 13:49:41;;;;;;;4.78;2.47;;;27.00;30.70;;;;;;5038741;28;20026;-75
2021/04/16 13:52:07;;;;;;;4.35;2.90;;;24.70;29.90;;;;;;5043630;28;20028;-75
2021/04/16 13:54:35;;;;;;;3.95;2.90;;;25.90;31.60;;;;;;5031121;28;20029;-75
2021/04/16 13:57:02;;;;;;;5.03;2.80;;;26.60;29.60;;;;;;5038162;28;20026;-75
2021/04/16 13:59:30;;;;;;;4.57;2.55;;;27.10;30.80;;;;;;5048632;28;20133;-75
2021/04/16 14:01:56;;;;;;;2.95;2.70;;;22.10;31.60;;;;;;5040991;28;20062;-75
2021/04/16 14:04:25;;;;;;;3.20;2.90;;;21.20;34.50;;;;;;5047559;28;20017;-74
2021/04/16 14:06:54;;;;;;;8.25;2.65;;;22.00;38.30;;;;;;5031550;28;20021;-75
2021/04/16 14:09:20;;;;;;;8.23;2.30;;;19.60;34.20;;;;;;5041345;28;20386;-75
2021/04/16 14:11:46;;;;;;;2.47;2.25;;;18.70;38.30;;;;;;5044148;28;20034;-75
2021/04/16 14:14:16;;;;;;;4.90;2.60;;;18.50;41.20;;;;;;5042671;28;20021;-75
2021/04/16 14:16:44;;;;;;;3.17;2.47;;;18.50;39.60;;;;;;5040819;28;20025;-75
2021/04/16 14:19:18;;;;;;;9.43;2.72;;;18.20;39.20;;;;;;5036974;28;20489;-74
2021/04/16 14:21:45;;;;;;;2.97;2.40;;;18.30;39.70;;;;;;5044176;28;20109;-74
2021/04/16 14:24:13;;;;;;;5.22;2.10;;;18.40;38.50;;;;;;5046325;28;20025;-74
2021/04/16 14:26:41;;;;;;;3.50;2.35;;;17.70;38.80;;;;;;5039790;28;20025;-74
2021/04/16 14:29:07;;;;;;;3.10;2.17;;;17.30;38.00;;;;;;5038270;28;20017;-75
2021/04/16 14:31:33;;;;;;;2.85;2.28;;;16.70;38.20;;;;;;5039491;28;20055;-75
2021/04/16 14:33:59;;;;;;;5.18;2.28;;;16.60;40.80;;;;;;5043377;28;20487;-74
2021/04/16 14:36:24;;;;;;;8.32;3.53;;;16.30;39.40;;;;;;5045010;28;20108;-74
2021/04/16 14:38:50;;;;;;;5.68;2.85;;;16.20;40.10;;;;;;5050787;28;20053;-74
2021/04/16 14:41:19;;;;;;;3.55;2.28;;;15.80;39.40;;;;;;5051377;28;20029;-74
2021/04/16 14:43:45;;;;;;;4.47;1.90;;;16.00;42.40;;;;;;5050518;28;20032;-74
2021/04/16 14:46:11;;;;;;;3.42;2.53;;;15.80;41.10;;;;;;5051042;28;20025;-74
2021/04/16 14:48:37;;;;;;;3.50;2.28;;;15.00;41.20;;;;;;5050870;28;20024;-74
2021/04/16 14:51:06;;;;;;;3.92;2.33;;;14.90;43.20;;;;;;5048170;28;20025;-74
2021/04/16 14:53:51;;;;;;;3.75;1.92;;;15.70;41.90;;;;;;5030418;28;20033;-74
2021/04/16 14:56:19;;;;;;;7.85;2.28;;;15.90;41.00;;;;;;5029657;28;20052;-73
2021/04/16 14:59:01;;;;;;;2.88;2.22;;;15.70;41.00;;;;;;5031227;28;20075;-73
2021/04/16 15:01:29;;;;;;;5.28;2.30;;;15.00;40.50;;;;;;5031105;28;20100;-73
2021/04/16 15:03:56;;;;;;;4.97;2.38;;;14.60;42.20;;;;;;5036835;28;20100;-73
2021/04/16 15:06:28;;;;;;;3.45;2.08;;;14.30;43.10;;;;;;5039666;28;20075;-73
2021/04/16 15:09:07;;;;;;;12.05;3.13;;;14.30;42.80;;;;;;5031229;28;20026;-73
2021/04/16 15:11:45;;;;;;;7.10;2.60;;;14.20;42.70;;;;;;5030892;28;20129;-73
2021/04/16 15:14:21;;;;;;;5.85;2.20;;;14.10;41.50;;;;;;5032163;28;20124;-73
2021/04/16 15:16:51;;;;;;;2.20;2.00;;;14.00;41.50;;;;;;5022807;28;20041;-73
2021/04/16 15:19:26;;;;;;;6.57;1.98;;;13.90;42.80;;;;;;5038974;28;20482;-74
2021/04/16 15:21:54;;;;;;;5.65;1.92;;;14.00;42.70;;;;;;5043016;28;20025;-74
2021/04/16 15:24:20;;;;;;;2.22;1.75;;;14.00;42.70;;;;;;5046955;28;20032;-74